sensor_id;sensor_type;location;lat;lon;timestamp;temperature;humidity
18882;DHT22;9573;50.948;11.600;2023-02-26T00:01:12;1.40;99.90
18882;DHT22;9573;50.948;11.600;2023-02-26T00:03:41;1.30;99.90
18882;DHT22;9573;50.948;11.600;2023-02-26T00:06:09;1.30;99.90
18882;DHT22;9573;50.948;11.600;2023-02-26T00:08:36;1.30;99.90
18882;DHT22;9573;50.948;11.600;2023-02-26T00:11:06;1.20;99.90
18882;DHT22;9573;50.948;11.600;2023-02-26T00:13:35;1.20;99.90
18882;DHT22;9573;50.948;11.600;2023-02-26T00:16:10;1.20;99.90
18882;DHT22;9573;50.948;11.600;2023-02-26T00:18:41;1.20;99.90
18882;DHT22;9573;50.948;11.600;2023-02-26T00:21:15;1.10;99.90
18882;DHT22;9573;50.948;11.600;2023-02-26T00:23:43;1.20;99.90
18882;DHT22;9573;50.948;11.600;2023-02-26T00:26:10;1.10;99.90
18882;DHT22;9573;50.948;11.600;2023-02-26T00:28:38;1.10;99.90
18882;DHT22;9573;50.948;11.600;2023-02-26T00:31:06;1.10;99.90
18882;DHT22;9573;50.948;11.600;2023-02-26T00:33:35;1.10;99.90
18882;DHT22;9573;50.948;11.600;2023-02-26T00:36:16;1.10;99.90
18882;DHT22;9573;50.948;11.600;2023-02-26T00:38:56;1.10;99.90
18882;DHT22;9573;50.948;11.600;2023-02-26T00:41:29;1.00;99.90
18882;DHT22;9573;50.948;11.600;2023-02-26T00:43:57;1.00;99.90
18882;DHT22;9573;50.948;11.600;2023-02-26T00:46:33;1.00;99.90
18882;DHT22;9573;50.948;11.600;2023-02-26T00:49:15;1.00;99.90
18882;DHT22;9573;50.948;11.600;2023-02-26T00:51:51;1.00;99.90
18882;DHT22;9573;50.948;11.600;2023-02-26T00:54:21;1.00;99.90
18882;DHT22;9573;50.948;11.600;2023-02-26T00:56:50;0.90;99.90
18882;DHT22;9573;50.948;11.600;2023-02-26T00:59:19;1.00;99.90
18882;DHT22;9573;50.948;11.600;2023-02-26T01:01:47;1.00;99.90
18882;DHT22;9573;50.948;11.600;2023-02-26T01:04:17;1.00;99.90
18882;DHT22;9573;50.948;11.600;2023-02-26T01:06:48;0.90;99.90
18882;DHT22;9573;50.948;11.600;2023-02-26T01:09:23;1.00;99.90
18882;DHT22;9573;50.948;11.600;2023-02-26T01:11:52;0.90;99.90
18882;DHT22;9573;50.948;11.600;2023-02-26T01:14:21;0.80;99.90
18882;DHT22;9573;50.948;11.600;2023-02-26T01:16:53;0.80;99.90
18882;DHT22;9573;50.948;11.600;2023-02-26T01:19:28;0.80;99.90
18882;DHT22;9573;50.948;11.600;2023-02-26T01:22:04;0.80;99.90
18882;DHT22;9573;50.948;11.600;2023-02-26T01:24:35;0.70;99.90
18882;DHT22;9573;50.948;11.600;2023-02-26T01:27:03;0.70;99.90
18882;DHT22;9573;50.948;11.600;2023-02-26T01:29:31;0.70;99.90
18882;DHT22;9573;50.948;11.600;2023-02-26T01:32:03;0.70;99.90
18882;DHT22;9573;50.948;11.600;2023-02-26T01:34:36;0.70;99.90
18882;DHT22;9573;50.948;11.600;2023-02-26T01:37:13;0.70;99.90
18882;DHT22;9573;50.948;11.600;2023-02-26T01:39:55;0.60;99.90
18882;DHT22;9573;50.948;11.600;2023-02-26T01:42:43;0.60;99.90
18882;DHT22;9573;50.948;11.600;2023-02-26T01:45:16;-0.20;99.90
18882;DHT22;9573;50.948;11.600;2023-02-26T01:47:50;0.50;99.90
18882;DHT22;9573;50.948;11.600;2023-02-26T01:50:23;0.50;99.90
18882;DHT22;9573;50.948;11.600;2023-02-26T01:55:50;0.50;99.90
18882;DHT22;9573;50.948;11.600;2023-02-26T01:58:20;0.50;99.90
18882;DHT22;9573;50.948;11.600;2023-02-26T02:00:48;0.50;99.90
18882;DHT22;9573;50.948;11.600;2023-02-26T02:03:17;0.50;99.90
18882;DHT22;9573;50.948;11.600;2023-02-26T02:05:49;0.50;99.90
18882;DHT22;9573;50.948;11.600;2023-02-26T02:08:19;0.60;99.90
18882;DHT22;9573;50.948;11.600;2023-02-26T02:10:49;0.70;99.90
18882;DHT22;9573;50.948;11.600;2023-02-26T02:13:28;0.60;99.90
18882;DHT22;9573;50.948;11.600;2023-02-26T02:16:07;0.60;99.90
18882;DHT22;9573;50.948;11.600;2023-02-26T02:18:51;0.50;99.90
18882;DHT22;9573;50.948;11.600;2023-02-26T02:21:31;0.60;99.90
18882;DHT22;9573;50.948;11.600;2023-02-26T02:24:30;0.60;99.90
18882;DHT22;9573;50.948;11.600;2023-02-26T02:27:07;0.60;99.90
18882;DHT22;9573;50.948;11.600;2023-02-26T02:32:46;0.50;99.90
18882;DHT22;9573;50.948;11.600;2023-02-26T02:35:19;0.50;99.90
18882;DHT22;9573;50.948;11.600;2023-02-26T02:37:55;0.50;99.90
18882;DHT22;9573;50.948;11.600;2023-02-26T02:40:26;0.40;99.90
18882;DHT22;9573;50.948;11.600;2023-02-26T02:42:59;0.40;99.90
18882;DHT22;9573;50.948;11.600;2023-02-26T02:45:33;0.40;99.90
18882;DHT22;9573;50.948;11.600;2023-02-26T02:48:07;0.30;99.90
18882;DHT22;9573;50.948;11.600;2023-02-26T02:50:39;0.30;99.90
18882;DHT22;9573;50.948;11.600;2023-02-26T02:53:13;0.30;99.90
18882;DHT22;9573;50.948;11.600;2023-02-26T02:55:47;0.30;99.90
18882;DHT22;9573;50.948;11.600;2023-02-26T02:58:19;0.30;99.90
18882;DHT22;9573;50.948;11.600;2023-02-26T03:00:51;0.20;99.90
18882;DHT22;9573;50.948;11.600;2023-02-26T03:03:26;0.20;99.90
18882;DHT22;9573;50.948;11.600;2023-02-26T03:05:57;0.20;99.90
18882;DHT22;9573;50.948;11.600;2023-02-26T03:08:26;0.20;99.90
18882;DHT22;9573;50.948;11.600;2023-02-26T03:10:56;0.20;99.90
18882;DHT22;9573;50.948;11.600;2023-02-26T03:13:24;0.20;99.90
18882;DHT22;9573;50.948;11.600;2023-02-26T03:16:00;0.20;99.90
18882;DHT22;9573;50.948;11.600;2023-02-26T03:18:45;0.20;99.90
18882;DHT22;9573;50.948;11.600;2023-02-26T03:21:20;0.20;99.90
18882;DHT22;9573;50.948;11.600;2023-02-26T03:23:59;0.20;99.90
18882;DHT22;9573;50.948;11.600;2023-02-26T03:26:33;0.20;99.90
18882;DHT22;9573;50.948;11.600;2023-02-26T03:29:07;0.20;99.90
18882;DHT22;9573;50.948;11.600;2023-02-26T03:31:42;0.20;99.90
18882;DHT22;9573;50.948;11.600;2023-02-26T03:34:20;0.20;99.90
18882;DHT22;9573;50.948;11.600;2023-02-26T03:36:56;0.10;99.90
18882;DHT22;9573;50.948;11.600;2023-02-26T03:39:28;0.20;99.90
18882;DHT22;9573;50.948;11.600;2023-02-26T03:42:01;0.20;99.90
18882;DHT22;9573;50.948;11.600;2023-02-26T03:44:33;0.20;99.90
18882;DHT22;9573;50.948;11.600;2023-02-26T03:47:05;0.20;99.90
18882;DHT22;9573;50.948;11.600;2023-02-26T03:49:38;0.20;99.90
18882;DHT22;9573;50.948;11.600;2023-02-26T03:52:08;0.20;99.90
18882;DHT22;9573;50.948;11.600;2023-02-26T03:54:38;0.30;99.90
18882;DHT22;9573;50.948;11.600;2023-02-26T03:57:07;0.20;99.90
18882;DHT22;9573;50.948;11.600;2023-02-26T03:59:35;0.20;99.90
18882;DHT22;9573;50.948;11.600;2023-02-26T04:02:04;0.20;99.90
18882;DHT22;9573;50.948;11.600;2023-02-26T04:04:41;0.20;99.90
18882;DHT22;9573;50.948;11.600;2023-02-26T04:07:12;0.30;99.90
18882;DHT22;9573;50.948;11.600;2023-02-26T04:09:40;0.20;99.90
18882;DHT22;9573;50.948;11.600;2023-02-26T04:12:08;0.10;99.90
18882;DHT22;9573;50.948;11.600;2023-02-26T04:14:36;0.20;99.90
18882;DHT22;9573;50.948;11.600;2023-02-26T04:17:03;0.20;99.90
18882;DHT22;9573;50.948;11.600;2023-02-26T04:19:31;0.10;99.90
18882;DHT22;9573;50.948;11.600;2023-02-26T04:21:59;0.10;99.90
18882;DHT22;9573;50.948;11.600;2023-02-26T04:24:26;0.10;99.90
18882;DHT22;9573;50.948;11.600;2023-02-26T04:26:53;0.10;99.90
18882;DHT22;9573;50.948;11.600;2023-02-26T04:29:20;0.10;99.90
18882;DHT22;9573;50.948;11.600;2023-02-26T04:31:47;0.10;99.90
18882;DHT22;9573;50.948;11.600;2023-02-26T04:34:14;0.10;99.90
18882;DHT22;9573;50.948;11.600;2023-02-26T04:36:42;0.10;99.90
18882;DHT22;9573;50.948;11.600;2023-02-26T04:39:10;0.10;99.90
18882;DHT22;9573;50.948;11.600;2023-02-26T04:41:38;0.10;99.90
18882;DHT22;9573;50.948;11.600;2023-02-26T04:44:05;0.10;99.90
18882;DHT22;9573;50.948;11.600;2023-02-26T04:46:32;0.10;99.90
18882;DHT22;9573;50.948;11.600;2023-02-26T04:48:59;0.10;99.90
18882;DHT22;9573;50.948;11.600;2023-02-26T04:51:26;0.30;99.90
18882;DHT22;9573;50.948;11.600;2023-02-26T04:53:54;0.10;99.90
18882;DHT22;9573;50.948;11.600;2023-02-26T04:56:23;0.20;99.90
18882;DHT22;9573;50.948;11.600;2023-02-26T04:58:50;0.10;99.90
18882;DHT22;9573;50.948;11.600;2023-02-26T05:01:17;0.10;99.90
18882;DHT22;9573;50.948;11.600;2023-02-26T05:03:44;0.10;99.90
18882;DHT22;9573;50.948;11.600;2023-02-26T05:06:11;0.20;99.90
18882;DHT22;9573;50.948;11.600;2023-02-26T05:08:38;0.20;99.90
18882;DHT22;9573;50.948;11.600;2023-02-26T05:11:07;0.20;99.90
18882;DHT22;9573;50.948;11.600;2023-02-26T05:13:36;0.20;99.90
18882;DHT22;9573;50.948;11.600;2023-02-26T05:16:05;0.20;99.90
18882;DHT22;9573;50.948;11.600;2023-02-26T05:18:33;0.20;99.90
18882;DHT22;9573;50.948;11.600;2023-02-26T05:21:00;0.20;99.90
18882;DHT22;9573;50.948;11.600;2023-02-26T05:23:27;0.10;99.90
18882;DHT22;9573;50.948;11.600;2023-02-26T05:25:54;0.10;99.90
18882;DHT22;9573;50.948;11.600;2023-02-26T05:28:22;0.10;99.90
18882;DHT22;9573;50.948;11.600;2023-02-26T05:30:51;0.10;99.90
18882;DHT22;9573;50.948;11.600;2023-02-26T05:33:18;0.10;99.90
18882;DHT22;9573;50.948;11.600;2023-02-26T05:35:45;0.10;99.90
18882;DHT22;9573;50.948;11.600;2023-02-26T05:38:13;0.10;99.90
18882;DHT22;9573;50.948;11.600;2023-02-26T05:40:40;0.10;99.90
18882;DHT22;9573;50.948;11.600;2023-02-26T05:43:07;0.10;99.90
18882;DHT22;9573;50.948;11.600;2023-02-26T05:45:35;0.10;99.90
18882;DHT22;9573;50.948;11.600;2023-02-26T05:48:03;0.10;99.90
18882;DHT22;9573;50.948;11.600;2023-02-26T05:50:30;0.10;99.90
18882;DHT22;9573;50.948;11.600;2023-02-26T05:52:57;0.10;99.90
18882;DHT22;9573;50.948;11.600;2023-02-26T05:55:25;0.10;99.90
18882;DHT22;9573;50.948;11.600;2023-02-26T05:57:52;0.10;99.90
18882;DHT22;9573;50.948;11.600;2023-02-26T06:00:20;0.10;99.90
18882;DHT22;9573;50.948;11.600;2023-02-26T06:02:47;0.20;99.90
18882;DHT22;9573;50.948;11.600;2023-02-26T06:05:15;0.20;99.90
18882;DHT22;9573;50.948;11.600;2023-02-26T06:07:43;0.20;99.90
18882;DHT22;9573;50.948;11.600;2023-02-26T06:10:11;0.20;99.90
18882;DHT22;9573;50.948;11.600;2023-02-26T06:12:38;0.10;99.90
18882;DHT22;9573;50.948;11.600;2023-02-26T06:15:07;0.20;99.90
18882;DHT22;9573;50.948;11.600;2023-02-26T06:17:35;0.20;99.90
18882;DHT22;9573;50.948;11.600;2023-02-26T06:20:02;0.20;99.90
18882;DHT22;9573;50.948;11.600;2023-02-26T06:22:34;0.20;99.90
18882;DHT22;9573;50.948;11.600;2023-02-26T06:25:02;0.20;99.90
18882;DHT22;9573;50.948;11.600;2023-02-26T06:27:30;0.20;99.90
18882;DHT22;9573;50.948;11.600;2023-02-26T06:29:57;0.20;99.90
18882;DHT22;9573;50.948;11.600;2023-02-26T06:32:24;0.20;99.90
18882;DHT22;9573;50.948;11.600;2023-02-26T06:34:51;0.20;99.90
18882;DHT22;9573;50.948;11.600;2023-02-26T06:37:18;0.20;99.90
18882;DHT22;9573;50.948;11.600;2023-02-26T06:39:47;0.20;99.90
18882;DHT22;9573;50.948;11.600;2023-02-26T06:42:14;0.20;99.90
18882;DHT22;9573;50.948;11.600;2023-02-26T06:44:41;0.30;99.90
18882;DHT22;9573;50.948;11.600;2023-02-26T06:47:08;0.20;99.90
18882;DHT22;9573;50.948;11.600;2023-02-26T06:49:35;0.20;99.90
18882;DHT22;9573;50.948;11.600;2023-02-26T06:52:02;0.30;99.90
18882;DHT22;9573;50.948;11.600;2023-02-26T06:54:30;0.30;99.90
18882;DHT22;9573;50.948;11.600;2023-02-26T06:56:58;0.30;99.90
18882;DHT22;9573;50.948;11.600;2023-02-26T06:59:27;0.30;99.90
18882;DHT22;9573;50.948;11.600;2023-02-26T07:01:54;0.50;99.90
18882;DHT22;9573;50.948;11.600;2023-02-26T07:04:21;0.50;99.90
18882;DHT22;9573;50.948;11.600;2023-02-26T07:06:49;0.50;99.90
18882;DHT22;9573;50.948;11.600;2023-02-26T07:09:16;0.50;99.90
18882;DHT22;9573;50.948;11.600;2023-02-26T07:11:44;0.50;99.90
18882;DHT22;9573;50.948;11.600;2023-02-26T07:14:12;0.50;99.90
18882;DHT22;9573;50.948;11.600;2023-02-26T07:16:39;-0.70;99.90
18882;DHT22;9573;50.948;11.600;2023-02-26T07:19:07;0.70;99.90
18882;DHT22;9573;50.948;11.600;2023-02-26T07:21:34;0.70;99.90
18882;DHT22;9573;50.948;11.600;2023-02-26T07:24:01;0.70;99.90
18882;DHT22;9573;50.948;11.600;2023-02-26T07:26:28;0.70;99.90
18882;DHT22;9573;50.948;11.600;2023-02-26T07:28:55;0.80;99.90
18882;DHT22;9573;50.948;11.600;2023-02-26T07:31:24;0.80;99.90
18882;DHT22;9573;50.948;11.600;2023-02-26T07:33:51;0.80;99.90
18882;DHT22;9573;50.948;11.600;2023-02-26T07:36:18;0.90;99.90
18882;DHT22;9573;50.948;11.600;2023-02-26T07:38:47;1.00;99.90
18882;DHT22;9573;50.948;11.600;2023-02-26T07:41:16;1.20;99.90
18882;DHT22;9573;50.948;11.600;2023-02-26T07:43:43;1.20;99.90
18882;DHT22;9573;50.948;11.600;2023-02-26T07:46:11;1.40;99.90
18882;DHT22;9573;50.948;11.600;2023-02-26T07:48:39;1.50;99.90
18882;DHT22;9573;50.948;11.600;2023-02-26T07:51:07;1.50;99.90
18882;DHT22;9573;50.948;11.600;2023-02-26T07:53:35;1.60;99.90
18882;DHT22;9573;50.948;11.600;2023-02-26T07:56:04;1.70;99.90
18882;DHT22;9573;50.948;11.600;2023-02-26T07:58:31;1.80;99.90
18882;DHT22;9573;50.948;11.600;2023-02-26T08:00:58;1.90;99.90
18882;DHT22;9573;50.948;11.600;2023-02-26T08:03:28;2.00;99.90
18882;DHT22;9573;50.948;11.600;2023-02-26T08:05:58;2.00;99.90
18882;DHT22;9573;50.948;11.600;2023-02-26T08:08:26;2.20;99.90
18882;DHT22;9573;50.948;11.600;2023-02-26T08:10:53;2.40;99.90
18882;DHT22;9573;50.948;11.600;2023-02-26T08:13:20;2.50;99.90
18882;DHT22;9573;50.948;11.600;2023-02-26T08:15:48;2.60;99.90
18882;DHT22;9573;50.948;11.600;2023-02-26T08:18:15;2.60;99.90
18882;DHT22;9573;50.948;11.600;2023-02-26T08:20:42;2.70;99.90
18882;DHT22;9573;50.948;11.600;2023-02-26T08:23:11;2.90;99.90
18882;DHT22;9573;50.948;11.600;2023-02-26T08:25:38;3.10;99.90
18882;DHT22;9573;50.948;11.600;2023-02-26T08:28:05;3.30;99.90
18882;DHT22;9573;50.948;11.600;2023-02-26T08:30:35;3.00;99.90
18882;DHT22;9573;50.948;11.600;2023-02-26T08:33:02;2.80;99.90
18882;DHT22;9573;50.948;11.600;2023-02-26T08:35:30;2.60;99.90
18882;DHT22;9573;50.948;11.600;2023-02-26T08:38:00;2.40;99.90
18882;DHT22;9573;50.948;11.600;2023-02-26T08:40:30;2.40;99.90
18882;DHT22;9573;50.948;11.600;2023-02-26T08:42:57;2.20;99.90
18882;DHT22;9573;50.948;11.600;2023-02-26T08:45:24;2.40;99.90
18882;DHT22;9573;50.948;11.600;2023-02-26T08:47:51;2.50;99.90
18882;DHT22;9573;50.948;11.600;2023-02-26T08:50:20;2.60;99.90
18882;DHT22;9573;50.948;11.600;2023-02-26T08:52:47;2.70;99.90
18882;DHT22;9573;50.948;11.600;2023-02-26T08:55:14;2.70;99.90
18882;DHT22;9573;50.948;11.600;2023-02-26T08:57:43;3.00;99.90
18882;DHT22;9573;50.948;11.600;2023-02-26T09:00:11;3.20;99.90
18882;DHT22;9573;50.948;11.600;2023-02-26T09:02:41;3.20;99.90
18882;DHT22;9573;50.948;11.600;2023-02-26T09:05:08;3.30;99.90
18882;DHT22;9573;50.948;11.600;2023-02-26T09:07:36;3.40;99.90
18882;DHT22;9573;50.948;11.600;2023-02-26T09:10:04;3.50;99.90
18882;DHT22;9573;50.948;11.600;2023-02-26T09:12:33;3.30;99.90
18882;DHT22;9573;50.948;11.600;2023-02-26T09:15:03;3.40;99.90
18882;DHT22;9573;50.948;11.600;2023-02-26T09:17:31;3.60;99.90
18882;DHT22;9573;50.948;11.600;2023-02-26T09:19:59;3.80;99.90
18882;DHT22;9573;50.948;11.600;2023-02-26T09:22:26;4.00;99.90
18882;DHT22;9573;50.948;11.600;2023-02-26T09:24:53;4.00;99.90
18882;DHT22;9573;50.948;11.600;2023-02-26T09:27:21;4.00;99.90
18882;DHT22;9573;50.948;11.600;2023-02-26T09:29:49;4.30;99.90
18882;DHT22;9573;50.948;11.600;2023-02-26T09:32:18;4.50;99.90
18882;DHT22;9573;50.948;11.600;2023-02-26T09:34:45;4.70;99.90
18882;DHT22;9573;50.948;11.600;2023-02-26T09:37:12;4.70;99.90
18882;DHT22;9573;50.948;11.600;2023-02-26T09:39:39;4.40;99.90
18882;DHT22;9573;50.948;11.600;2023-02-26T09:44:59;4.40;99.90
18882;DHT22;9573;50.948;11.600;2023-02-26T09:47:32;4.40;99.90
18882;DHT22;9573;50.948;11.600;2023-02-26T09:50:11;4.40;99.90
18882;DHT22;9573;50.948;11.600;2023-02-26T09:52:47;4.60;99.90
18882;DHT22;9573;50.948;11.600;2023-02-26T09:55:23;4.60;99.90
18882;DHT22;9573;50.948;11.600;2023-02-26T09:57:58;4.60;99.90
18882;DHT22;9573;50.948;11.600;2023-02-26T10:00:33;4.60;99.90
18882;DHT22;9573;50.948;11.600;2023-02-26T10:03:18;4.50;99.90
18882;DHT22;9573;50.948;11.600;2023-02-26T10:06:19;4.30;99.90
18882;DHT22;9573;50.948;11.600;2023-02-26T10:11:55;4.20;99.90
18882;DHT22;9573;50.948;11.600;2023-02-26T10:14:27;4.10;99.90
18882;DHT22;9573;50.948;11.600;2023-02-26T10:17:00;3.90;99.90
18882;DHT22;9573;50.948;11.600;2023-02-26T10:19:36;3.80;99.90
18882;DHT22;9573;50.948;11.600;2023-02-26T10:22:15;3.70;99.90
18882;DHT22;9573;50.948;11.600;2023-02-26T10:24:48;3.50;99.90
18882;DHT22;9573;50.948;11.600;2023-02-26T10:27:32;3.70;99.90
18882;DHT22;9573;50.948;11.600;2023-02-26T10:30:09;5.10;99.90
18882;DHT22;9573;50.948;11.600;2023-02-26T10:32:49;4.00;99.90
18882;DHT22;9573;50.948;11.600;2023-02-26T10:35:22;4.10;99.90
18882;DHT22;9573;50.948;11.600;2023-02-26T10:37:56;4.10;99.90
18882;DHT22;9573;50.948;11.600;2023-02-26T10:40:31;4.30;99.90
18882;DHT22;9573;50.948;11.600;2023-02-26T10:43:07;4.60;99.90
18882;DHT22;9573;50.948;11.600;2023-02-26T10:45:43;4.90;99.90
18882;DHT22;9573;50.948;11.600;2023-02-26T10:48:27;5.00;99.90
18882;DHT22;9573;50.948;11.600;2023-02-26T10:51:12;5.30;99.90
18882;DHT22;9573;50.948;11.600;2023-02-26T10:53:42;5.40;99.90
18882;DHT22;9573;50.948;11.600;2023-02-26T10:56:19;5.40;99.90
18882;DHT22;9573;50.948;11.600;2023-02-26T10:58:49;5.30;99.90
18882;DHT22;9573;50.948;11.600;2023-02-26T11:01:18;5.80;99.90
18882;DHT22;9573;50.948;11.600;2023-02-26T11:03:48;6.10;99.90
18882;DHT22;9573;50.948;11.600;2023-02-26T11:06:22;6.40;99.90
18882;DHT22;9573;50.948;11.600;2023-02-26T11:08:54;6.60;99.90
18882;DHT22;9573;50.948;11.600;2023-02-26T11:11:37;7.10;99.90
18882;DHT22;9573;50.948;11.600;2023-02-26T11:14:07;7.70;99.90
18882;DHT22;9573;50.948;11.600;2023-02-26T11:16:35;7.90;99.90
18882;DHT22;9573;50.948;11.600;2023-02-26T11:19:08;8.10;99.90
18882;DHT22;9573;50.948;11.600;2023-02-26T11:21:39;8.40;99.90
18882;DHT22;9573;50.948;11.600;2023-02-26T11:24:11;8.50;99.90
18882;DHT22;9573;50.948;11.600;2023-02-26T11:26:45;8.50;99.90
18882;DHT22;9573;50.948;11.600;2023-02-26T11:29:18;8.50;99.90
18882;DHT22;9573;50.948;11.600;2023-02-26T11:31:47;8.20;99.90
18882;DHT22;9573;50.948;11.600;2023-02-26T11:34:21;8.20;99.90
18882;DHT22;9573;50.948;11.600;2023-02-26T11:36:51;8.80;99.90
18882;DHT22;9573;50.948;11.600;2023-02-26T11:39:22;9.70;99.90
18882;DHT22;9573;50.948;11.600;2023-02-26T11:41:54;10.50;99.90
18882;DHT22;9573;50.948;11.600;2023-02-26T11:44:31;11.10;99.90
18882;DHT22;9573;50.948;11.600;2023-02-26T11:47:04;10.40;99.90
18882;DHT22;9573;50.948;11.600;2023-02-26T11:49:33;9.80;99.90
18882;DHT22;9573;50.948;11.600;2023-02-26T11:52:05;9.60;99.90
18882;DHT22;9573;50.948;11.600;2023-02-26T11:54:44;9.70;99.90
18882;DHT22;9573;50.948;11.600;2023-02-26T11:57:15;9.40;99.20
18882;DHT22;9573;50.948;11.600;2023-02-26T11:59:47;9.30;99.10
18882;DHT22;9573;50.948;11.600;2023-02-26T12:02:18;9.20;99.70
18882;DHT22;9573;50.948;11.600;2023-02-26T12:04:50;9.00;99.90
18882;DHT22;9573;50.948;11.600;2023-02-26T12:07:20;9.50;98.90
18882;DHT22;9573;50.948;11.600;2023-02-26T12:09:48;9.60;97.90
18882;DHT22;9573;50.948;11.600;2023-02-26T12:15:20;9.00;98.10
18882;DHT22;9573;50.948;11.600;2023-02-26T12:18:11;8.60;98.10
18882;DHT22;9573;50.948;11.600;2023-02-26T12:20:55;8.40;98.60
18882;DHT22;9573;50.948;11.600;2023-02-26T12:24:06;8.20;98.20
18882;DHT22;9573;50.948;11.600;2023-02-26T12:26:48;8.40;98.00
18882;DHT22;9573;50.948;11.600;2023-02-26T12:29:32;8.70;98.10
18882;DHT22;9573;50.948;11.600;2023-02-26T12:32:44;9.10;96.90
18882;DHT22;9573;50.948;11.600;2023-02-26T12:35:36;9.20;96.30
18882;DHT22;9573;50.948;11.600;2023-02-26T12:38:22;9.10;96.10
18882;DHT22;9573;50.948;11.600;2023-02-26T12:41:30;8.50;94.90
18882;DHT22;9573;50.948;11.600;2023-02-26T12:44:13;8.20;95.10
18882;DHT22;9573;50.948;11.600;2023-02-26T12:47:01;7.70;95.50
18882;DHT22;9573;50.948;11.600;2023-02-26T12:49:59;7.10;96.20
18882;DHT22;9573;50.948;11.600;2023-02-26T12:55:36;6.80;97.60
18882;DHT22;9573;50.948;11.600;2023-02-26T13:01:56;6.20;97.70
18882;DHT22;9573;50.948;11.600;2023-02-26T13:04:56;6.10;99.40
18882;DHT22;9573;50.948;11.600;2023-02-26T13:08:07;6.10;99.90
18882;DHT22;9573;50.948;11.600;2023-02-26T13:10:48;6.00;99.90
18882;DHT22;9573;50.948;11.600;2023-02-26T13:13:33;5.70;99.90
18882;DHT22;9573;50.948;11.600;2023-02-26T13:16:30;5.40;99.90
18882;DHT22;9573;50.948;11.600;2023-02-26T13:19:10;5.20;99.90
18882;DHT22;9573;50.948;11.600;2023-02-26T13:21:45;5.10;99.90
18882;DHT22;9573;50.948;11.600;2023-02-26T13:24:16;5.10;99.90
18882;DHT22;9573;50.948;11.600;2023-02-26T13:26:45;5.00;99.90
18882;DHT22;9573;50.948;11.600;2023-02-26T13:29:16;5.00;99.90
18882;DHT22;9573;50.948;11.600;2023-02-26T13:31:49;4.90;99.90
18882;DHT22;9573;50.948;11.600;2023-02-26T13:34:23;4.80;99.90
18882;DHT22;9573;50.948;11.600;2023-02-26T13:36:57;3.50;99.90
18882;DHT22;9573;50.948;11.600;2023-02-26T13:39:37;4.60;99.90
18882;DHT22;9573;50.948;11.600;2023-02-26T13:42:16;4.70;99.90
18882;DHT22;9573;50.948;11.600;2023-02-26T13:44:58;4.60;99.90
18882;DHT22;9573;50.948;11.600;2023-02-26T13:47:59;4.50;99.90
18882;DHT22;9573;50.948;11.600;2023-02-26T13:50:42;4.70;99.90
18882;DHT22;9573;50.948;11.600;2023-02-26T13:53:53;4.80;99.90
18882;DHT22;9573;50.948;11.600;2023-02-26T13:56:47;4.70;99.90
18882;DHT22;9573;50.948;11.600;2023-02-26T13:59:52;4.70;99.90
18882;DHT22;9573;50.948;11.600;2023-02-26T14:02:47;4.80;99.90
18882;DHT22;9573;50.948;11.600;2023-02-26T14:08:45;5.60;99.90
18882;DHT22;9573;50.948;11.600;2023-02-26T14:14:17;6.30;98.20
18882;DHT22;9573;50.948;11.600;2023-02-26T14:16:53;5.80;98.90
18882;DHT22;9573;50.948;11.600;2023-02-26T14:19:32;5.60;99.40
18882;DHT22;9573;50.948;11.600;2023-02-26T14:22:16;5.40;99.90
18882;DHT22;9573;50.948;11.600;2023-02-26T14:24:52;5.30;99.90
18882;DHT22;9573;50.948;11.600;2023-02-26T14:27:24;5.40;99.90
18882;DHT22;9573;50.948;11.600;2023-02-26T14:30:03;5.60;99.90
18882;DHT22;9573;50.948;11.600;2023-02-26T14:32:34;5.60;99.90
18882;DHT22;9573;50.948;11.600;2023-02-26T14:35:15;5.70;99.90
18882;DHT22;9573;50.948;11.600;2023-02-26T14:37:49;5.50;99.90
18882;DHT22;9573;50.948;11.600;2023-02-26T14:40:24;5.20;99.90
18882;DHT22;9573;50.948;11.600;2023-02-26T14:42:53;5.10;99.90
18882;DHT22;9573;50.948;11.600;2023-02-26T14:45:27;5.00;99.90
18882;DHT22;9573;50.948;11.600;2023-02-26T14:47:57;4.90;99.90
18882;DHT22;9573;50.948;11.600;2023-02-26T14:50:30;5.00;99.90
18882;DHT22;9573;50.948;11.600;2023-02-26T14:53:41;4.90;99.90
18882;DHT22;9573;50.948;11.600;2023-02-26T14:56:23;4.50;99.90
18882;DHT22;9573;50.948;11.600;2023-02-26T14:59:20;4.30;99.90
18882;DHT22;9573;50.948;11.600;2023-02-26T15:02:04;4.20;99.90
18882;DHT22;9573;50.948;11.600;2023-02-26T15:04:58;4.20;99.90
18882;DHT22;9573;50.948;11.600;2023-02-26T15:07:47;4.50;99.90
18882;DHT22;9573;50.948;11.600;2023-02-26T15:10:38;4.50;99.90
18882;DHT22;9573;50.948;11.600;2023-02-26T15:13:33;4.20;99.90
18882;DHT22;9573;50.948;11.600;2023-02-26T15:16:12;4.10;99.90
18882;DHT22;9573;50.948;11.600;2023-02-26T15:19:00;4.00;99.90
18882;DHT22;9573;50.948;11.600;2023-02-26T15:21:47;3.90;99.90
18882;DHT22;9573;50.948;11.600;2023-02-26T15:24:22;3.90;99.90
18882;DHT22;9573;50.948;11.600;2023-02-26T15:26:53;3.80;99.90
18882;DHT22;9573;50.948;11.600;2023-02-26T15:29:30;3.70;99.90
18882;DHT22;9573;50.948;11.600;2023-02-26T15:32:04;3.60;99.90
18882;DHT22;9573;50.948;11.600;2023-02-26T15:34:33;3.50;99.90
18882;DHT22;9573;50.948;11.600;2023-02-26T15:37:00;3.40;99.90
18882;DHT22;9573;50.948;11.600;2023-02-26T15:39:27;3.20;99.90
18882;DHT22;9573;50.948;11.600;2023-02-26T15:41:56;3.10;99.90
18882;DHT22;9573;50.948;11.600;2023-02-26T15:44:26;3.00;99.90
18882;DHT22;9573;50.948;11.600;2023-02-26T15:46:58;3.00;99.90
18882;DHT22;9573;50.948;11.600;2023-02-26T15:49:30;3.00;99.90
18882;DHT22;9573;50.948;11.600;2023-02-26T15:52:00;2.90;99.90
18882;DHT22;9573;50.948;11.600;2023-02-26T15:54:33;2.90;99.90
18882;DHT22;9573;50.948;11.600;2023-02-26T15:57:04;3.10;99.90
18882;DHT22;9573;50.948;11.600;2023-02-26T15:59:33;3.30;99.90
18882;DHT22;9573;50.948;11.600;2023-02-26T16:02:10;3.50;99.90
18882;DHT22;9573;50.948;11.600;2023-02-26T16:04:40;3.60;99.90
18882;DHT22;9573;50.948;11.600;2023-02-26T16:07:09;3.80;99.90
18882;DHT22;9573;50.948;11.600;2023-02-26T16:09:39;3.80;99.90
18882;DHT22;9573;50.948;11.600;2023-02-26T16:12:11;3.70;99.90
18882;DHT22;9573;50.948;11.600;2023-02-26T16:14:45;3.60;99.90
18882;DHT22;9573;50.948;11.600;2023-02-26T16:17:22;3.30;99.90
18882;DHT22;9573;50.948;11.600;2023-02-26T16:19:52;3.10;99.90
18882;DHT22;9573;50.948;11.600;2023-02-26T16:22:24;2.90;99.90
18882;DHT22;9573;50.948;11.600;2023-02-26T16:24:56;2.70;99.90
18882;DHT22;9573;50.948;11.600;2023-02-26T16:27:28;2.60;99.90
18882;DHT22;9573;50.948;11.600;2023-02-26T16:29:58;2.40;99.90
18882;DHT22;9573;50.948;11.600;2023-02-26T16:32:29;2.40;99.90
18882;DHT22;9573;50.948;11.600;2023-02-26T16:34:59;2.30;99.90
18882;DHT22;9573;50.948;11.600;2023-02-26T16:37:36;2.20;99.90
18882;DHT22;9573;50.948;11.600;2023-02-26T16:40:16;2.10;99.90
18882;DHT22;9573;50.948;11.600;2023-02-26T16:42:52;2.10;99.90
18882;DHT22;9573;50.948;11.600;2023-02-26T16:45:42;2.00;99.90
18882;DHT22;9573;50.948;11.600;2023-02-26T16:48:17;1.90;99.90
18882;DHT22;9573;50.948;11.600;2023-02-26T16:50:54;1.70;99.90